Time;durP1;ratioP1;P1;durP2;ratioP2;P2;SDS_P1;SDS_P2;PMS_P1;PMS_P2;Temp;Humidity;BMP_temperature;BMP_pressure;BME280_temperature;BME280_humidity;BME280_pressure;Samples;Min_cycle;Max_cycle;Signal;HPM_P1;HPM_P2
2023/08/16 00:02:08;;;;;;;2.75;1.20;;;23.30;61.60;;;;;;5052076;28;20181;-61
2023/08/16 00:04:34;;;;;;;2.40;1.10;;;23.30;61.60;;;;;;5052307;28;20274;-63
2023/08/16 00:06:59;;;;;;;1.45;1.10;;;23.30;61.60;;;;;;5051340;28;20270;-62
2023/08/16 00:09:25;;;;;;;1.55;1.45;;;23.30;61.80;;;;;;5052420;28;20179;-62
2023/08/16 00:11:51;;;;;;;2.08;1.17;;;23.30;61.50;;;;;;5052356;28;20639;-62
2023/08/16 00:14:17;;;;;;;2.28;1.45;;;23.30;62.50;;;;;;5051128;28;20656;-61
2023/08/16 00:16:43;;;;;;;1.55;1.10;;;23.30;61.70;;;;;;5052104;28;20290;-62
2023/08/16 00:19:08;;;;;;;2.45;1.20;;;23.30;61.70;;;;;;5052115;28;20638;-61
2023/08/16 00:21:34;;;;;;;2.08;1.45;;;23.20;61.60;;;;;;5051691;28;20258;-62
2023/08/16 00:23:59;;;;;;;1.73;1.25;;;23.20;61.60;;;;;;5052096;28;20692;-62
2023/08/16 00:26:25;;;;;;;2.83;1.75;;;23.20;61.80;;;;;;5053410;28;20648;-61
2023/08/16 00:28:50;;;;;;;1.52;1.10;;;23.20;61.70;;;;;;5055170;28;20637;-62
2023/08/16 00:31:16;;;;;;;1.27;1.17;;;23.20;61.70;;;;;;5055509;28;20258;-62
2023/08/16 00:33:41;;;;;;;2.67;1.50;;;23.20;61.70;;;;;;5056157;28;20202;-62
2023/08/16 00:36:07;;;;;;;1.88;1.30;;;23.20;61.70;;;;;;5054727;28;20238;-63
2023/08/16 00:38:33;;;;;;;1.27;1.17;;;23.20;61.70;;;;;;5055789;28;20183;-63
2023/08/16 00:40:59;;;;;;;1.20;1.10;;;23.20;61.70;;;;;;5054991;28;20175;-63
2023/08/16 00:43:24;;;;;;;1.60;1.50;;;23.20;61.80;;;;;;5055561;28;20297;-63
2023/08/16 00:45:50;;;;;;;1.25;1.15;;;23.20;61.80;;;;;;5055906;28;20171;-62
2023/08/16 00:48:16;;;;;;;2.53;1.23;;;23.20;61.70;;;;;;5053537;28;20285;-62
2023/08/16 00:50:42;;;;;;;1.33;1.23;;;23.20;61.70;;;;;;5055673;28;20627;-63
2023/08/16 00:53:08;;;;;;;1.33;1.23;;;23.20;61.80;;;;;;5054076;28;20186;-62
2023/08/16 00:55:33;;;;;;;1.65;1.55;;;23.20;61.70;;;;;;5054577;28;20201;-61
2023/08/16 00:57:59;;;;;;;2.20;1.50;;;23.10;61.70;;;;;;5055053;28;20654;-62
2023/08/16 01:00:25;;;;;;;1.02;0.90;;;23.20;62.00;;;;;;5055307;28;20175;-63
2023/08/16 01:02:50;;;;;;;1.23;1.10;;;23.20;61.90;;;;;;5053408;28;20185;-63
2023/08/16 01:05:16;;;;;;;1.70;1.20;;;23.10;61.90;;;;;;5055194;28;20217;-63
2023/08/16 01:07:41;;;;;;;1.63;1.17;;;23.20;61.90;;;;;;5055205;28;20175;-63
2023/08/16 01:10:08;;;;;;;1.58;1.35;;;23.20;61.90;;;;;;5054242;28;20187;-62
2023/08/16 01:12:51;;;;;;;2.30;1.20;;;23.10;61.80;;;;;;5055239;28;20179;-61
2023/08/16 01:15:21;;;;;;;1.48;1.38;;;23.10;62.80;;;;;;5053865;28;20579;-62
2023/08/16 01:17:46;;;;;;;2.47;1.90;;;23.10;61.80;;;;;;5053306;28;20301;-62
2023/08/16 01:20:12;;;;;;;2.25;1.35;;;23.10;61.90;;;;;;5053420;28;20209;-61
2023/08/16 01:23:06;;;;;;;1.83;1.42;;;23.10;61.90;;;;;;5053939;28;20182;-62
2023/08/16 01:25:56;;;;;;;1.30;1.20;;;23.10;61.80;;;;;;5053815;28;20711;-62
2023/08/16 01:28:22;;;;;;;3.67;1.20;;;23.10;62.00;;;;;;5054741;28;20183;-62
2023/08/16 01:30:48;;;;;;;1.98;1.33;;;23.10;61.90;;;;;;5052872;28;20752;-62
2023/08/16 01:33:13;;;;;;;2.60;1.40;;;23.10;62.00;;;;;;5053258;28;20171;-62
2023/08/16 01:35:39;;;;;;;2.28;1.40;;;23.10;62.10;;;;;;5054680;28;20175;-63
2023/08/16 01:38:06;;;;;;;1.38;1.25;;;23.10;62.10;;;;;;5053874;28;20564;-63
2023/08/16 01:40:57;;;;;;;2.55;1.50;;;23.10;62.00;;;;;;5053627;28;20225;-63
2023/08/16 01:43:23;;;;;;;2.17;1.63;;;23.10;62.00;;;;;;5054325;28;20171;-63
2023/08/16 01:45:48;;;;;;;2.38;1.40;;;23.10;62.00;;;;;;5052515;28;20189;-63
2023/08/16 01:48:15;;;;;;;2.00;1.52;;;23.10;61.90;;;;;;5052982;28;20210;-62
2023/08/16 01:50:40;;;;;;;1.38;1.27;;;23.10;62.80;;;;;;5053489;28;20171;-62
2023/08/16 01:53:06;;;;;;;2.90;1.20;;;23.10;61.90;;;;;;5053545;28;20233;-62
2023/08/16 01:55:32;;;;;;;1.42;1.33;;;23.10;61.90;;;;;;5054488;28;20747;-62
2023/08/16 01:57:57;;;;;;;2.28;1.40;;;23.10;62.10;;;;;;5053909;28;20218;-62
2023/08/16 02:00:23;;;;;;;1.92;1.50;;;23.10;62.00;;;;;;5053461;28;20175;-63
2023/08/16 02:02:48;;;;;;;1.48;1.38;;;23.10;62.10;;;;;;5054198;28;20182;-63
2023/08/16 02:05:14;;;;;;;1.45;1.10;;;23.10;62.10;;;;;;5053287;28;20167;-63
2023/08/16 02:07:40;;;;;;;1.95;1.48;;;23.10;62.10;;;;;;5054085;28;20634;-62
2023/08/16 02:10:06;;;;;;;1.58;1.40;;;23.10;62.10;;;;;;5053962;28;20171;-62
2023/08/16 02:12:31;;;;;;;1.58;1.38;;;23.00;62.10;;;;;;5053247;28;20171;-61
2023/08/16 02:14:57;;;;;;;1.80;1.20;;;23.00;62.10;;;;;;5054072;28;20183;-61
2023/08/16 02:17:22;;;;;;;1.50;1.40;;;23.00;62.10;;;;;;5053616;28;20207;-61
2023/08/16 02:19:48;;;;;;;4.28;1.42;;;23.00;62.20;;;;;;5053438;28;20203;-62
2023/08/16 02:22:13;;;;;;;1.83;1.40;;;23.00;62.00;;;;;;5053710;28;20187;-61
2023/08/16 02:24:39;;;;;;;3.30;1.65;;;23.00;62.00;;;;;;5053627;28;20182;-61
2023/08/16 02:27:04;;;;;;;3.13;1.70;;;23.00;62.10;;;;;;5052622;28;20171;-61
2023/08/16 02:29:30;;;;;;;2.15;1.77;;;23.00;62.10;;;;;;5053593;28;20170;-61
2023/08/16 02:31:55;;;;;;;1.42;1.33;;;23.00;62.10;;;;;;5053774;28;20182;-62
2023/08/16 02:34:21;;;;;;;1.83;1.33;;;23.00;62.10;;;;;;5052741;28;20555;-62
2023/08/16 02:36:46;;;;;;;3.75;1.77;;;23.00;62.20;;;;;;5053579;28;20273;-63
2023/08/16 02:39:12;;;;;;;1.63;1.40;;;23.00;62.20;;;;;;5053309;28;20271;-62
2023/08/16 02:41:37;;;;;;;2.70;1.58;;;23.00;62.10;;;;;;5052774;28;20201;-63
2023/08/16 02:44:03;;;;;;;3.72;1.58;;;23.00;63.00;;;;;;5052819;28;20218;-62
2023/08/16 02:46:29;;;;;;;3.47;1.60;;;23.00;62.10;;;;;;5053327;28;20175;-62
2023/08/16 02:48:54;;;;;;;1.60;1.50;;;23.00;62.20;;;;;;5052485;28;20511;-62
2023/08/16 02:51:20;;;;;;;1.98;1.60;;;23.00;62.20;;;;;;5052890;28;20175;-62
2023/08/16 02:53:45;;;;;;;2.05;1.40;;;23.00;62.20;;;;;;5053476;28;20172;-61
2023/08/16 02:56:11;;;;;;;2.22;1.50;;;23.00;62.10;;;;;;5052286;28;20182;-61
2023/08/16 02:58:37;;;;;;;2.55;1.77;;;23.00;62.10;;;;;;5053329;28;20167;-62
2023/08/16 03:01:03;;;;;;;1.42;1.27;;;22.90;62.00;;;;;;5052878;28;20178;-63
2023/08/16 03:03:28;;;;;;;1.52;1.25;;;23.00;62.10;;;;;;5052383;28;20179;-63
2023/08/16 03:05:54;;;;;;;1.52;1.42;;;23.00;62.10;;;;;;5053261;28;20535;-62
2023/08/16 03:08:19;;;;;;;1.88;1.25;;;22.90;62.20;;;;;;5052814;28;20195;-62
2023/08/16 03:10:45;;;;;;;2.30;1.30;;;23.00;62.30;;;;;;5052260;28;20179;-62
2023/08/16 03:13:10;;;;;;;1.75;1.20;;;23.00;62.30;;;;;;5052567;28;20183;-62
2023/08/16 03:15:36;;;;;;;2.60;1.60;;;22.90;62.20;;;;;;5051996;28;20258;-61
2023/08/16 03:18:02;;;;;;;1.42;1.20;;;22.90;62.10;;;;;;5052583;28;20723;-61
2023/08/16 03:20:28;;;;;;;2.10;1.80;;;22.90;62.20;;;;;;5052641;28;20210;-62
2023/08/16 03:22:53;;;;;;;1.80;1.30;;;22.90;62.20;;;;;;5052071;28;20175;-61
2023/08/16 03:25:19;;;;;;;2.28;1.42;;;22.90;62.20;;;;;;5052583;28;20603;-62
2023/08/16 03:27:44;;;;;;;1.95;1.40;;;22.90;62.30;;;;;;5052911;28;20175;-61
2023/08/16 03:30:10;;;;;;;2.80;1.38;;;22.90;62.20;;;;;;5051764;28;20167;-61
2023/08/16 03:32:36;;;;;;;2.03;1.38;;;22.90;62.10;;;;;;5052980;28;20265;-62
2023/08/16 03:35:03;;;;;;;1.70;1.60;;;22.90;62.20;;;;;;5052645;28;20263;-62
2023/08/16 03:37:28;;;;;;;2.22;1.48;;;22.90;62.20;;;;;;5051906;28;20211;-63
2023/08/16 03:39:54;;;;;;;1.90;1.50;;;22.90;62.30;;;;;;5052572;28;20217;-63
2023/08/16 03:42:20;;;;;;;1.85;1.42;;;22.90;62.30;;;;;;5052289;28;20634;-62
2023/08/16 03:44:45;;;;;;;1.58;1.35;;;22.90;62.30;;;;;;5051718;28;20253;-62
2023/08/16 03:47:11;;;;;;;2.05;1.60;;;22.90;62.30;;;;;;5052260;28;20658;-62
2023/08/16 03:49:36;;;;;;;1.60;1.30;;;22.90;62.30;;;;;;5052794;28;20691;-62
2023/08/16 03:52:03;;;;;;;2.10;1.35;;;22.90;62.30;;;;;;5051493;28;20175;-61
2023/08/16 03:54:28;;;;;;;2.55;1.30;;;22.90;62.20;;;;;;5052539;28;20175;-61
2023/08/16 03:56:56;;;;;;;3.60;1.63;;;22.80;62.20;;;;;;5052580;28;20538;-62
2023/08/16 03:59:22;;;;;;;1.70;1.52;;;22.90;62.30;;;;;;5051546;28;20179;-63
2023/08/16 04:01:47;;;;;;;1.50;1.40;;;22.80;62.20;;;;;;5054598;28;20553;-64
2023/08/16 04:04:13;;;;;;;2.75;1.50;;;22.90;62.30;;;;;;5056363;28;20263;-62
2023/08/16 04:06:39;;;;;;;1.98;1.55;;;22.80;62.30;;;;;;5055802;28;20618;-62
2023/08/16 04:09:05;;;;;;;2.63;1.63;;;22.90;62.30;;;;;;5056161;28;20199;-62
2023/08/16 04:11:30;;;;;;;1.95;1.65;;;22.80;62.20;;;;;;5056358;28;20570;-61
2023/08/16 04:13:56;;;;;;;1.80;1.60;;;22.80;62.30;;;;;;5055575;28;20179;-61
2023/08/16 04:16:21;;;;;;;3.05;1.70;;;22.80;62.30;;;;;;5055749;28;20244;-62
2023/08/16 04:18:50;;;;;;;1.40;1.27;;;22.80;62.30;;;;;;5056130;28;20266;-61
2023/08/16 04:21:15;;;;;;;1.90;1.50;;;22.80;62.30;;;;;;5055503;28;20180;-62
2023/08/16 04:23:41;;;;;;;2.50;1.40;;;22.80;62.30;;;;;;5056191;28;20186;-61
2023/08/16 04:26:07;;;;;;;1.63;1.35;;;22.80;62.40;;;;;;5054943;28;20177;-61
2023/08/16 04:28:32;;;;;;;2.75;1.70;;;22.80;62.30;;;;;;5055868;28;20175;-61
2023/08/16 04:30:59;;;;;;;2.85;1.40;;;22.80;62.40;;;;;;5056015;28;20237;-61
2023/08/16 04:33:25;;;;;;;3.42;1.63;;;22.80;62.40;;;;;;5055240;28;20233;-62
2023/08/16 04:35:51;;;;;;;1.52;1.20;;;22.80;62.40;;;;;;5055798;28;20585;-62
2023/08/16 04:38:16;;;;;;;1.60;1.50;;;22.80;62.40;;;;;;5055514;28;20215;-63
2023/08/16 04:40:42;;;;;;;2.08;1.60;;;22.90;63.40;;;;;;5055063;28;20271;-63
2023/08/16 04:43:07;;;;;;;2.50;1.33;;;22.80;62.40;;;;;;5055453;28;20183;-63
2023/08/16 04:45:33;;;;;;;2.88;1.48;;;22.80;62.40;;;;;;5055475;28;20306;-63
2023/08/16 04:47:58;;;;;;;2.25;1.70;;;22.80;62.50;;;;;;5054736;28;20638;-62
2023/08/16 04:50:24;;;;;;;2.00;1.58;;;22.80;62.40;;;;;;5055624;28;20197;-62
2023/08/16 04:52:49;;;;;;;3.00;1.40;;;22.80;62.40;;;;;;5055469;28;20167;-61
2023/08/16 04:55:15;;;;;;;1.98;1.60;;;22.80;62.50;;;;;;5054351;28;20175;-62
2023/08/16 04:57:41;;;;;;;1.85;1.70;;;22.80;62.50;;;;;;5055370;28;20214;-62
2023/08/16 05:00:08;;;;;;;1.60;1.35;;;22.80;62.40;;;;;;5055040;28;20174;-62
2023/08/16 05:02:34;;;;;;;2.33;1.65;;;22.80;62.40;;;;;;5054942;28;20249;-63
2023/08/16 05:05:00;;;;;;;1.60;1.50;;;22.80;62.40;;;;;;5055125;28;20214;-62
2023/08/16 05:07:25;;;;;;;1.85;1.23;;;22.80;62.50;;;;;;5055432;28;20179;-62
2023/08/16 05:09:51;;;;;;;2.75;1.52;;;22.80;62.60;;;;;;5054735;28;20293;-62
2023/08/16 05:12:16;;;;;;;1.67;1.58;;;22.80;62.50;;;;;;5054428;28;20185;-61
2023/08/16 05:14:42;;;;;;;2.30;1.75;;;22.80;62.40;;;;;;5055083;28;20175;-62
2023/08/16 05:17:08;;;;;;;1.50;1.40;;;22.70;62.40;;;;;;5053795;28;20215;-62
2023/08/16 05:19:34;;;;;;;2.53;1.60;;;22.80;62.50;;;;;;5055143;28;20179;-62
2023/08/16 05:22:00;;;;;;;2.15;1.60;;;22.70;62.40;;;;;;5054576;28;20250;-62
2023/08/16 05:24:25;;;;;;;1.50;1.40;;;22.80;62.50;;;;;;5053976;28;20187;-62
2023/08/16 05:26:51;;;;;;;2.05;1.13;;;22.80;62.40;;;;;;5054830;28;20171;-62
2023/08/16 05:29:16;;;;;;;2.42;1.65;;;22.80;62.50;;;;;;5053759;28;20638;-62
2023/08/16 05:31:43;;;;;;;2.30;1.55;;;22.80;62.50;;;;;;5055049;28;20258;-62
2023/08/16 05:34:09;;;;;;;2.08;1.90;;;22.80;62.50;;;;;;5054446;28;20206;-63
2023/08/16 05:36:44;;;;;;;2.33;1.55;;;22.80;63.40;;;;;;5052649;28;20241;-63
2023/08/16 05:39:10;;;;;;;2.03;1.70;;;22.70;62.40;;;;;;5054272;28;20190;-63
2023/08/16 05:41:35;;;;;;;3.13;1.65;;;22.70;62.40;;;;;;5054391;28;20176;-63
2023/08/16 05:44:01;;;;;;;2.35;1.63;;;22.80;62.50;;;;;;5053297;28;20262;-63
2023/08/16 05:46:27;;;;;;;2.10;1.42;;;22.80;62.40;;;;;;5054452;28;20171;-62
2023/08/16 05:48:52;;;;;;;2.25;1.88;;;22.80;62.40;;;;;;5054370;28;20203;-62
2023/08/16 05:51:18;;;;;;;2.08;1.80;;;22.70;63.20;;;;;;5053520;28;20179;-62
2023/08/16 05:53:43;;;;;;;2.38;1.60;;;22.80;62.40;;;;;;5054325;28;20661;-61
2023/08/16 05:56:09;;;;;;;2.40;1.65;;;22.80;62.40;;;;;;5054071;28;20194;-62
2023/08/16 05:58:34;;;;;;;3.08;1.70;;;22.80;62.40;;;;;;5053762;28;20530;-62
2023/08/16 06:01:00;;;;;;;3.65;1.90;;;22.80;62.30;;;;;;5053964;28;20213;-63
2023/08/16 06:03:25;;;;;;;1.98;1.45;;;22.80;62.30;;;;;;5054098;28;20182;-63
2023/08/16 06:05:51;;;;;;;2.10;1.58;;;22.80;62.30;;;;;;5053552;28;20179;-63
2023/08/16 06:08:16;;;;;;;2.35;1.80;;;22.80;62.30;;;;;;5053821;28;20649;-62
2023/08/16 06:10:42;;;;;;;2.00;1.70;;;22.80;62.30;;;;;;5054025;28;20179;-62
2023/08/16 06:13:07;;;;;;;1.50;1.40;;;22.90;62.40;;;;;;5053145;28;20182;-61
2023/08/16 06:15:33;;;;;;;3.40;1.33;;;22.90;62.30;;;;;;5053891;28;20178;-62
2023/08/16 06:17:58;;;;;;;2.25;1.58;;;22.90;62.20;;;;;;5053431;28;20219;-61
2023/08/16 06:20:24;;;;;;;2.20;1.52;;;22.90;62.20;;;;;;5052992;28;20224;-61
2023/08/16 06:22:49;;;;;;;2.63;1.42;;;22.90;62.20;;;;;;5053750;28;20171;-62
2023/08/16 06:25:15;;;;;;;2.40;1.70;;;22.90;62.20;;;;;;5052718;28;20175;-61
2023/08/16 06:27:40;;;;;;;1.83;1.30;;;22.90;62.20;;;;;;5053141;28;20167;-61
2023/08/16 06:30:07;;;;;;;1.63;1.20;;;22.90;62.30;;;;;;5053939;28;20175;-61
2023/08/16 06:32:32;;;;;;;2.85;1.90;;;22.90;62.30;;;;;;5053115;28;20241;-62
2023/08/16 06:34:58;;;;;;;2.75;1.30;;;22.90;62.50;;;;;;5053498;28;20618;-63
2023/08/16 06:37:24;;;;;;;2.53;1.70;;;22.90;62.10;;;;;;5053338;28;20661;-62
2023/08/16 06:39:49;;;;;;;2.33;1.40;;;22.90;62.10;;;;;;5052661;28;20482;-62
2023/08/16 06:42:15;;;;;;;2.28;1.50;;;22.90;62.10;;;;;;5053309;28;20186;-62
2023/08/16 06:44:40;;;;;;;2.15;1.60;;;22.90;62.20;;;;;;5053168;28;20215;-62
2023/08/16 06:47:06;;;;;;;1.75;1.42;;;22.90;62.00;;;;;;5052484;28;20253;-61
2023/08/16 06:49:31;;;;;;;2.72;1.42;;;22.90;61.90;;;;;;5053364;28;20182;-61
2023/08/16 06:51:57;;;;;;;2.42;1.40;;;22.90;62.00;;;;;;5053456;28;20178;-61
2023/08/16 06:54:23;;;;;;;2.20;1.60;;;22.90;62.00;;;;;;5052418;28;20190;-61
2023/08/16 06:56:49;;;;;;;3.17;1.40;;;22.90;61.90;;;;;;5053377;28;20207;-62
2023/08/16 06:59:15;;;;;;;3.10;1.40;;;22.90;61.90;;;;;;5052949;28;20187;-62
2023/08/16 07:01:40;;;;;;;2.28;1.50;;;23.00;61.90;;;;;;5052560;28;20534;-63
2023/08/16 07:04:06;;;;;;;1.60;1.30;;;23.00;62.00;;;;;;5052962;28;20179;-62
2023/08/16 07:06:32;;;;;;;2.45;1.40;;;23.00;62.00;;;;;;5053068;28;20174;-63
2023/08/16 07:09:00;;;;;;;1.92;1.27;;;22.90;62.00;;;;;;5052136;28;20664;-61
2023/08/16 07:11:26;;;;;;;1.45;1.35;;;23.00;62.00;;;;;;5052822;28;20648;-62
2023/08/16 07:13:51;;;;;;;2.10;1.52;;;23.00;61.90;;;;;;5052881;28;20183;-61
2023/08/16 07:16:17;;;;;;;1.80;1.50;;;23.00;62.00;;;;;;5052055;28;20185;-61
2023/08/16 07:18:43;;;;;;;2.28;1.58;;;23.00;62.00;;;;;;5053023;28;20194;-62
2023/08/16 07:21:09;;;;;;;1.90;1.52;;;23.00;62.00;;;;;;5052710;28;20250;-64
2023/08/16 07:23:34;;;;;;;1.92;1.40;;;23.00;61.90;;;;;;5051942;28;20179;-62
2023/08/16 07:26:00;;;;;;;1.98;1.27;;;23.00;61.80;;;;;;5052776;28;20601;-61
2023/08/16 07:28:25;;;;;;;3.40;1.40;;;23.00;61.90;;;;;;5052794;28;20171;-61
2023/08/16 07:30:54;;;;;;;3.03;1.50;;;23.10;61.90;;;;;;5052226;28;20175;-63
2023/08/16 07:33:23;;;;;;;1.90;1.35;;;23.10;61.90;;;;;;5052512;28;20175;-62
2023/08/16 07:35:49;;;;;;;2.33;1.75;;;23.10;62.00;;;;;;5051848;28;20657;-63
2023/08/16 07:38:15;;;;;;;1.30;1.20;;;23.10;61.90;;;;;;5052143;28;20288;-63
2023/08/16 07:40:46;;;;;;;1.65;1.30;;;23.10;62.00;;;;;;5052614;28;20648;-62
2023/08/16 07:43:12;;;;;;;1.85;1.55;;;23.10;62.10;;;;;;5051841;28;20190;-64
2023/08/16 07:45:37;;;;;;;1.50;1.40;;;23.10;62.10;;;;;;5052465;28;20342;-63
2023/08/16 07:48:03;;;;;;;2.13;1.25;;;23.00;62.10;;;;;;5052400;28;20175;-63
2023/08/16 07:50:29;;;;;;;2.20;1.52;;;23.10;62.10;;;;;;5052092;28;20179;-62
2023/08/16 07:52:54;;;;;;;1.30;1.20;;;23.10;62.10;;;;;;5052631;28;20179;-62
2023/08/16 07:55:22;;;;;;;2.70;1.40;;;23.10;62.10;;;;;;5052254;28;20178;-62
2023/08/16 07:57:47;;;;;;;1.58;1.48;;;23.10;62.10;;;;;;5052023;28;20259;-62
2023/08/16 08:00:14;;;;;;;2.70;1.27;;;23.10;63.00;;;;;;5052202;28;20203;-64
2023/08/16 08:02:40;;;;;;;1.80;1.23;;;23.10;62.20;;;;;;5052552;28;20209;-63
2023/08/16 08:05:06;;;;;;;1.48;1.30;;;23.10;62.10;;;;;;5051587;28;20666;-62
2023/08/16 08:07:32;;;;;;;1.38;1.20;;;23.20;62.00;;;;;;5052428;28;20175;-62
2023/08/16 08:09:58;;;;;;;1.42;1.00;;;23.20;62.00;;;;;;5052418;28;20175;-62
2023/08/16 08:12:23;;;;;;;1.98;1.55;;;23.20;62.10;;;;;;5051730;28;20191;-61
2023/08/16 08:14:49;;;;;;;1.60;1.40;;;23.20;62.10;;;;;;5052042;28;20182;-62
2023/08/16 08:17:15;;;;;;;1.80;1.33;;;23.20;62.30;;;;;;5051954;28;20572;-61
2023/08/16 08:19:41;;;;;;;1.65;1.48;;;23.20;62.30;;;;;;5051570;28;20175;-62
2023/08/16 08:22:06;;;;;;;2.28;1.73;;;23.20;62.20;;;;;;5051842;28;20183;-61
2023/08/16 08:24:32;;;;;;;1.20;1.10;;;23.20;62.30;;;;;;5052409;28;20652;-62
2023/08/16 08:26:57;;;;;;;1.73;1.40;;;23.20;62.30;;;;;;5051525;28;20702;-62
2023/08/16 08:29:26;;;;;;;2.15;1.40;;;23.10;62.30;;;;;;5052249;28;20219;-62
2023/08/16 08:31:53;;;;;;;1.48;1.20;;;23.20;62.40;;;;;;5052346;28;20186;-62
2023/08/16 08:34:19;;;;;;;2.53;1.45;;;23.20;62.30;;;;;;5051090;28;20313;-62
2023/08/16 08:36:44;;;;;;;1.90;1.45;;;23.20;62.30;;;;;;5052290;28;20290;-63
2023/08/16 08:39:10;;;;;;;1.75;1.35;;;23.30;62.30;;;;;;5051318;28;20635;-63
2023/08/16 08:41:37;;;;;;;2.55;1.42;;;23.30;62.20;;;;;;5052058;28;20321;-62
2023/08/16 08:44:03;;;;;;;2.17;1.48;;;23.30;62.20;;;;;;5050346;28;20263;-62
2023/08/16 08:46:29;;;;;;;1.83;1.10;;;23.30;62.20;;;;;;5051544;28;20272;-62
2023/08/16 08:48:57;;;;;;;1.77;1.23;;;23.40;62.20;;;;;;5054259;28;20194;-61
2023/08/16 08:51:23;;;;;;;1.55;1.30;;;23.40;62.10;;;;;;5054318;28;20179;-61
2023/08/16 08:53:48;;;;;;;1.30;1.20;;;23.40;62.00;;;;;;5054961;28;20178;-61
2023/08/16 08:56:16;;;;;;;1.70;1.38;;;23.40;61.90;;;;;;5055412;28;20654;-61
2023/08/16 08:58:41;;;;;;;2.22;1.42;;;23.50;61.90;;;;;;5054348;28;20210;-62
2023/08/16 09:01:08;;;;;;;1.60;1.30;;;23.50;61.90;;;;;;5053304;28;20167;-63
2023/08/16 09:03:33;;;;;;;2.10;1.35;;;23.50;62.80;;;;;;5054208;28;20221;-62
2023/08/16 09:05:59;;;;;;;1.58;1.40;;;23.50;62.00;;;;;;5053902;28;20171;-62
2023/08/16 09:08:24;;;;;;;1.80;1.65;;;23.40;61.90;;;;;;5053477;28;20545;-61
2023/08/16 09:10:52;;;;;;;2.28;1.45;;;23.50;62.00;;;;;;5055350;28;20167;-61
2023/08/16 09:13:18;;;;;;;1.42;1.27;;;23.50;62.80;;;;;;5054506;28;20721;-61
2023/08/16 09:15:44;;;;;;;1.40;1.30;;;23.60;62.00;;;;;;5054525;28;20176;-61
2023/08/16 09:18:11;;;;;;;1.35;1.20;;;23.60;62.00;;;;;;5054763;28;20595;-61
2023/08/16 09:20:37;;;;;;;2.20;1.38;;;23.60;61.90;;;;;;5055026;28;20638;-62
2023/08/16 09:23:02;;;;;;;2.20;1.58;;;23.60;61.90;;;;;;5054079;28;20183;-61
2023/08/16 09:25:29;;;;;;;2.25;1.52;;;23.60;62.00;;;;;;5055069;28;20225;-62
2023/08/16 09:27:54;;;;;;;1.75;1.30;;;23.60;61.90;;;;;;5055106;28;20184;-62
2023/08/16 09:30:20;;;;;;;2.35;1.30;;;23.60;61.90;;;;;;5054083;28;20167;-62
2023/08/16 09:32:46;;;;;;;1.83;1.48;;;23.60;61.90;;;;;;5054729;28;20171;-62
2023/08/16 09:35:16;;;;;;;2.08;1.60;;;23.70;62.70;;;;;;5054714;28;20176;-62
2023/08/16 09:37:44;;;;;;;2.05;1.40;;;23.70;61.80;;;;;;5053937;28;20581;-63
2023/08/16 09:40:11;;;;;;;1.73;1.30;;;23.70;61.80;;;;;;5054515;28;20640;-63
2023/08/16 09:42:36;;;;;;;2.03;1.60;;;23.70;61.80;;;;;;5054011;28;20182;-62
2023/08/16 09:45:02;;;;;;;1.33;1.23;;;23.80;62.70;;;;;;5054271;28;20583;-62
2023/08/16 09:47:31;;;;;;;2.20;1.33;;;23.80;61.70;;;;;;5054577;28;20244;-62
2023/08/16 09:50:00;;;;;;;1.60;1.40;;;23.80;61.60;;;;;;5052817;28;20534;-62
2023/08/16 09:52:27;;;;;;;2.03;1.40;;;23.80;61.50;;;;;;5054418;28;20661;-61
2023/08/16 09:54:55;;;;;;;2.13;1.35;;;23.80;61.60;;;;;;5053383;28;20225;-61
2023/08/16 09:57:20;;;;;;;2.17;1.27;;;23.80;61.50;;;;;;5053440;28;20207;-62
2023/08/16 09:59:46;;;;;;;1.88;1.63;;;23.80;61.50;;;;;;5052084;28;20217;-62
2023/08/16 10:02:12;;;;;;;1.88;1.23;;;23.90;61.60;;;;;;5052676;28;20187;-62
2023/08/16 10:04:41;;;;;;;3.30;1.52;;;23.90;61.60;;;;;;5052355;28;20184;-62
2023/08/16 10:07:08;;;;;;;2.97;1.63;;;23.90;61.50;;;;;;5053969;28;20179;-62
2023/08/16 10:09:34;;;;;;;3.20;1.92;;;23.90;61.40;;;;;;5054100;28;20193;-62
2023/08/16 10:12:03;;;;;;;2.72;1.50;;;23.90;61.30;;;;;;5052079;28;20596;-61
2023/08/16 10:14:29;;;;;;;1.67;1.45;;;24.00;61.30;;;;;;5054004;28;20194;-61
2023/08/16 10:16:56;;;;;;;1.98;1.60;;;24.00;61.20;;;;;;5053864;28;20205;-62
2023/08/16 10:19:23;;;;;;;1.83;1.40;;;24.00;61.20;;;;;;5052782;28;21034;-61
2023/08/16 10:21:49;;;;;;;2.22;1.65;;;24.00;61.20;;;;;;5053991;28;20190;-62
2023/08/16 10:24:17;;;;;;;2.42;1.33;;;24.00;61.10;;;;;;5052351;28;20544;-61
2023/08/16 10:26:46;;;;;;;2.60;1.83;;;24.00;61.10;;;;;;5051973;28;20175;-62
2023/08/16 10:29:13;;;;;;;1.75;1.50;;;24.10;61.10;;;;;;5053420;28;20178;-61
2023/08/16 10:31:40;;;;;;;2.53;1.50;;;24.10;60.90;;;;;;5051732;28;20203;-62
2023/08/16 10:34:07;;;;;;;1.60;1.30;;;24.20;61.00;;;;;;5052390;28;20176;-62
2023/08/16 10:36:32;;;;;;;2.30;1.25;;;24.20;61.00;;;;;;5052526;28;20297;-63
2023/08/16 10:38:59;;;;;;;2.15;1.33;;;24.20;60.90;;;;;;5051444;28;20290;-63
2023/08/16 10:41:25;;;;;;;2.42;1.38;;;24.20;60.90;;;;;;5053393;28;20167;-63
2023/08/16 10:43:51;;;;;;;2.13;1.45;;;24.10;61.00;;;;;;5053659;28;20214;-63
2023/08/16 10:46:28;;;;;;;1.70;1.30;;;24.10;60.90;;;;;;5052407;28;20333;-63
2023/08/16 10:49:06;;;;;;;1.52;1.17;;;24.10;61.10;;;;;;5053625;28;20182;-62
2023/08/16 10:51:44;;;;;;;1.95;1.20;;;24.10;61.10;;;;;;5053360;28;20262;-62
2023/08/16 10:54:10;;;;;;;2.67;1.40;;;24.10;61.00;;;;;;5052159;28;20622;-62
2023/08/16 10:56:38;;;;;;;2.97;1.17;;;24.10;61.00;;;;;;5052198;28;20232;-62
2023/08/16 10:59:05;;;;;;;1.60;1.13;;;24.10;60.90;;;;;;5053102;28;20236;-62
2023/08/16 11:01:32;;;;;;;1.42;1.25;;;24.10;60.80;;;;;;5052587;28;20175;-63
2023/08/16 11:04:02;;;;;;;1.60;1.30;;;24.20;60.80;;;;;;5053082;28;20257;-63
2023/08/16 11:06:28;;;;;;;1.20;1.10;;;24.20;60.70;;;;;;5052977;28;20642;-62
2023/08/16 11:08:53;;;;;;;1.65;1.00;;;24.20;61.20;;;;;;5052296;28;20186;-61
2023/08/16 11:11:19;;;;;;;1.75;1.15;;;24.20;60.60;;;;;;5052550;28;20171;-62
2023/08/16 11:13:45;;;;;;;1.58;1.30;;;24.20;60.60;;;;;;5052990;28;20520;-61
2023/08/16 11:16:11;;;;;;;3.05;1.27;;;24.20;60.50;;;;;;5051957;28;20529;-61
2023/08/16 11:18:37;;;;;;;1.85;1.20;;;24.20;60.50;;;;;;5052884;28;20210;-62
2023/08/16 11:21:03;;;;;;;1.60;1.10;;;24.30;60.50;;;;;;5051668;28;20190;-62
2023/08/16 11:23:39;;;;;;;1.48;1.38;;;24.30;60.50;;;;;;5053025;28;20258;-62
2023/08/16 11:26:06;;;;;;;1.90;1.30;;;24.20;60.40;;;;;;5052629;28;20182;-61
2023/08/16 11:28:32;;;;;;;1.33;1.23;;;24.30;60.40;;;;;;5052180;28;20219;-61
2023/08/16 11:30:58;;;;;;;2.17;1.42;;;24.30;60.50;;;;;;5052616;28;20222;-62
2023/08/16 11:33:24;;;;;;;1.77;1.30;;;24.30;60.50;;;;;;5052886;28;20179;-62
2023/08/16 11:35:51;;;;;;;3.03;1.25;;;24.20;61.40;;;;;;5052025;28;20637;-63
2023/08/16 11:38:17;;;;;;;2.13;1.35;;;24.30;60.50;;;;;;5052176;28;20272;-68
2023/08/16 11:40:49;;;;;;;1.65;1.23;;;24.20;60.40;;;;;;5052732;28;20167;-64
2023/08/16 11:43:15;;;;;;;2.08;1.20;;;24.30;60.50;;;;;;5051864;28;20183;-66
2023/08/16 11:45:40;;;;;;;1.48;1.13;;;24.20;60.60;;;;;;5052455;28;20223;-62
2023/08/16 11:48:06;;;;;;;1.60;1.35;;;24.30;60.60;;;;;;5051083;28;20179;-62
2023/08/16 11:50:32;;;;;;;1.52;1.20;;;24.30;60.50;;;;;;5052119;28;20171;-61
2023/08/16 11:52:59;;;;;;;2.55;1.30;;;24.20;60.50;;;;;;5052380;28;20387;-62
2023/08/16 11:55:25;;;;;;;1.40;1.30;;;24.20;60.80;;;;;;5052630;28;20228;-62
2023/08/16 11:57:51;;;;;;;2.63;1.40;;;24.20;60.80;;;;;;5051900;28;20210;-62
2023/08/16 12:00:29;;;;;;;2.72;1.75;;;24.20;60.90;;;;;;5052267;28;20178;-63
2023/08/16 12:02:58;;;;;;;1.10;1.00;;;24.20;60.90;;;;;;5052460;28;20286;-62
2023/08/16 12:05:23;;;;;;;1.65;1.23;;;24.20;61.10;;;;;;5051847;28;20186;-63
2023/08/16 12:07:51;;;;;;;2.58;1.50;;;24.20;60.90;;;;;;5052345;28;20182;-62
2023/08/16 12:10:29;;;;;;;2.20;1.50;;;24.30;60.80;;;;;;5051391;28;20179;-62
2023/08/16 12:12:55;;;;;;;1.65;1.40;;;24.30;61.50;;;;;;5052379;28;20271;-62
2023/08/16 12:15:24;;;;;;;1.23;1.13;;;24.30;60.40;;;;;;5052021;28;20630;-62
2023/08/16 12:17:51;;;;;;;2.65;1.30;;;24.30;60.40;;;;;;5051748;28;20211;-62
2023/08/16 12:20:17;;;;;;;2.10;1.40;;;24.30;61.30;;;;;;5052133;28;20182;-62
2023/08/16 12:22:44;;;;;;;2.38;1.50;;;24.40;60.30;;;;;;5054044;28;20534;-62
2023/08/16 12:25:09;;;;;;;2.30;1.40;;;24.30;60.20;;;;;;5054914;28;20185;-62
2023/08/16 12:27:35;;;;;;;1.80;1.20;;;24.30;60.30;;;;;;5056061;28;20175;-61
2023/08/16 12:30:00;;;;;;;1.73;1.13;;;24.30;60.30;;;;;;5055716;28;20630;-61
2023/08/16 12:32:26;;;;;;;1.67;1.23;;;24.40;61.10;;;;;;5055273;28;20634;-62
2023/08/16 12:34:51;;;;;;;1.25;1.15;;;24.50;60.00;;;;;;5056069;28;20263;-63
2023/08/16 12:37:17;;;;;;;1.40;1.05;;;24.50;59.70;;;;;;5055550;28;20669;-63
2023/08/16 12:39:42;;;;;;;1.52;1.17;;;24.60;59.60;;;;;;5055232;28;20541;-64
2023/08/16 12:42:09;;;;;;;1.40;1.30;;;24.70;59.50;;;;;;5055628;28;20175;-63
2023/08/16 12:44:34;;;;;;;2.65;1.40;;;24.70;59.30;;;;;;5055455;28;20237;-63